sensor_id;sensor_type;location;lat;lon;timestamp;temperature;humidity
31074;DHT22;17730;53.552;9.940;2023-02-23T00:01:26;8.00;99.90
31074;DHT22;17730;53.552;9.940;2023-02-23T00:03:55;8.00;99.90
31074;DHT22;17730;53.552;9.940;2023-02-23T00:06:22;8.00;99.90
31074;DHT22;17730;53.552;9.940;2023-02-23T00:08:47;8.00;99.90
31074;DHT22;17730;53.552;9.940;2023-02-23T00:11:13;8.00;99.90
31074;DHT22;17730;53.552;9.940;2023-02-23T00:13:40;8.00;99.90
31074;DHT22;17730;53.552;9.940;2023-02-23T00:18:31;8.00;99.90
31074;DHT22;17730;53.552;9.940;2023-02-23T00:21:05;8.00;99.90
31074;DHT22;17730;53.552;9.940;2023-02-23T00:23:30;8.00;99.90
31074;DHT22;17730;53.552;9.940;2023-02-23T00:25:56;7.90;99.90
31074;DHT22;17730;53.552;9.940;2023-02-23T00:28:23;7.90;99.90
31074;DHT22;17730;53.552;9.940;2023-02-23T00:30:49;7.90;99.90
31074;DHT22;17730;53.552;9.940;2023-02-23T00:33:14;7.80;99.90
31074;DHT22;17730;53.552;9.940;2023-02-23T00:35:40;7.80;99.90
31074;DHT22;17730;53.552;9.940;2023-02-23T00:38:07;7.80;99.90
31074;DHT22;17730;53.552;9.940;2023-02-23T00:40:32;7.80;99.90
31074;DHT22;17730;53.552;9.940;2023-02-23T00:42:58;7.80;99.90
31074;DHT22;17730;53.552;9.940;2023-02-23T00:45:24;7.80;99.90
31074;DHT22;17730;53.552;9.940;2023-02-23T00:47:50;7.80;99.90
31074;DHT22;17730;53.552;9.940;2023-02-23T00:50:16;7.80;99.90
31074;DHT22;17730;53.552;9.940;2023-02-23T00:52:42;7.80;99.90
31074;DHT22;17730;53.552;9.940;2023-02-23T00:55:09;7.80;99.90
31074;DHT22;17730;53.552;9.940;2023-02-23T00:57:35;7.80;99.90
31074;DHT22;17730;53.552;9.940;2023-02-23T01:00:00;7.80;99.90
31074;DHT22;17730;53.552;9.940;2023-02-23T01:02:27;7.80;99.90
31074;DHT22;17730;53.552;9.940;2023-02-23T01:04:55;7.80;99.90
31074;DHT22;17730;53.552;9.940;2023-02-23T01:07:21;7.80;99.90
31074;DHT22;17730;53.552;9.940;2023-02-23T01:09:50;7.70;99.90
31074;DHT22;17730;53.552;9.940;2023-02-23T01:12:15;7.70;99.90
31074;DHT22;17730;53.552;9.940;2023-02-23T01:14:41;7.70;99.90
31074;DHT22;17730;53.552;9.940;2023-02-23T01:17:06;7.80;99.90
31074;DHT22;17730;53.552;9.940;2023-02-23T01:19:32;7.80;99.90
31074;DHT22;17730;53.552;9.940;2023-02-23T01:21:59;7.80;99.90
31074;DHT22;17730;53.552;9.940;2023-02-23T01:24:26;7.70;99.90
31074;DHT22;17730;53.552;9.940;2023-02-23T01:26:52;7.70;99.90
31074;DHT22;17730;53.552;9.940;2023-02-23T01:29:18;7.70;99.90
31074;DHT22;17730;53.552;9.940;2023-02-23T01:31:44;7.70;99.90
31074;DHT22;17730;53.552;9.940;2023-02-23T01:34:11;7.70;99.90
31074;DHT22;17730;53.552;9.940;2023-02-23T01:36:37;7.60;99.90
31074;DHT22;17730;53.552;9.940;2023-02-23T01:39:04;7.70;99.90
31074;DHT22;17730;53.552;9.940;2023-02-23T01:41:32;7.70;99.90
31074;DHT22;17730;53.552;9.940;2023-02-23T01:43:59;7.70;99.90
31074;DHT22;17730;53.552;9.940;2023-02-23T01:46:25;7.70;99.90
31074;DHT22;17730;53.552;9.940;2023-02-23T01:48:51;7.70;99.90
31074;DHT22;17730;53.552;9.940;2023-02-23T01:51:18;7.70;99.90
31074;DHT22;17730;53.552;9.940;2023-02-23T01:53:47;7.70;99.90
31074;DHT22;17730;53.552;9.940;2023-02-23T01:56:20;7.60;99.90
31074;DHT22;17730;53.552;9.940;2023-02-23T01:58:47;7.60;99.90
31074;DHT22;17730;53.552;9.940;2023-02-23T02:01:16;7.70;99.90
31074;DHT22;17730;53.552;9.940;2023-02-23T02:03:43;7.70;99.90
31074;DHT22;17730;53.552;9.940;2023-02-23T02:06:10;7.70;99.90
31074;DHT22;17730;53.552;9.940;2023-02-23T02:08:38;7.70;99.90
31074;DHT22;17730;53.552;9.940;2023-02-23T02:11:12;7.70;99.90
31074;DHT22;17730;53.552;9.940;2023-02-23T02:13:53;7.70;99.90
31074;DHT22;17730;53.552;9.940;2023-02-23T02:24:12;7.70;99.90
31074;DHT22;17730;53.552;9.940;2023-02-23T02:26:49;7.70;99.90
31074;DHT22;17730;53.552;9.940;2023-02-23T02:29:25;7.70;99.90
31074;DHT22;17730;53.552;9.940;2023-02-23T02:31:59;7.70;99.90
31074;DHT22;17730;53.552;9.940;2023-02-23T02:39:50;7.80;99.90
31074;DHT22;17730;53.552;9.940;2023-02-23T02:42:31;7.80;99.90
31074;DHT22;17730;53.552;9.940;2023-02-23T02:45:02;7.70;99.90
31074;DHT22;17730;53.552;9.940;2023-02-23T02:50:14;7.80;99.90
31074;DHT22;17730;53.552;9.940;2023-02-23T02:52:49;7.70;99.90
31074;DHT22;17730;53.552;9.940;2023-02-23T02:55:22;7.80;99.90
31074;DHT22;17730;53.552;9.940;2023-02-23T02:57:48;7.70;99.90
31074;DHT22;17730;53.552;9.940;2023-02-23T03:00:16;7.70;99.90
31074;DHT22;17730;53.552;9.940;2023-02-23T03:03:01;7.70;99.90
31074;DHT22;17730;53.552;9.940;2023-02-23T03:05:49;7.70;99.90
31074;DHT22;17730;53.552;9.940;2023-02-23T03:08:43;7.70;99.90
31074;DHT22;17730;53.552;9.940;2023-02-23T03:11:34;7.70;99.90
31074;DHT22;17730;53.552;9.940;2023-02-23T03:14:23;7.70;99.90
31074;DHT22;17730;53.552;9.940;2023-02-23T03:22:46;7.60;99.90
31074;DHT22;17730;53.552;9.940;2023-02-23T03:25:41;7.60;99.90
31074;DHT22;17730;53.552;9.940;2023-02-23T03:28:32;7.50;99.90
31074;DHT22;17730;53.552;9.940;2023-02-23T03:31:20;7.60;99.90
31074;DHT22;17730;53.552;9.940;2023-02-23T03:36:58;7.50;99.90
31074;DHT22;17730;53.552;9.940;2023-02-23T03:39:45;7.50;99.90
31074;DHT22;17730;53.552;9.940;2023-02-23T03:42:31;7.60;99.90
31074;DHT22;17730;53.552;9.940;2023-02-23T03:45:18;7.60;99.90
31074;DHT22;17730;53.552;9.940;2023-02-23T03:48:04;7.60;99.90
31074;DHT22;17730;53.552;9.940;2023-02-23T03:50:53;7.70;99.90
31074;DHT22;17730;53.552;9.940;2023-02-23T03:53:41;7.70;99.90
31074;DHT22;17730;53.552;9.940;2023-02-23T03:56:27;7.70;99.90
31074;DHT22;17730;53.552;9.940;2023-02-23T03:59:12;7.80;99.90
31074;DHT22;17730;53.552;9.940;2023-02-23T04:01:58;7.70;99.90
31074;DHT22;17730;53.552;9.940;2023-02-23T04:04:42;7.70;99.90
31074;DHT22;17730;53.552;9.940;2023-02-23T04:07:27;7.70;99.90
31074;DHT22;17730;53.552;9.940;2023-02-23T04:10:11;7.80;99.90
31074;DHT22;17730;53.552;9.940;2023-02-23T04:13:00;7.80;99.90
31074;DHT22;17730;53.552;9.940;2023-02-23T04:15:59;7.80;99.90
31074;DHT22;17730;53.552;9.940;2023-02-23T04:18:26;7.90;99.90
31074;DHT22;17730;53.552;9.940;2023-02-23T04:20:53;7.90;99.90
31074;DHT22;17730;53.552;9.940;2023-02-23T04:23:18;7.90;99.90
31074;DHT22;17730;53.552;9.940;2023-02-23T04:25:47;8.00;99.90
31074;DHT22;17730;53.552;9.940;2023-02-23T04:28:13;8.00;99.90
31074;DHT22;17730;53.552;9.940;2023-02-23T04:30:38;8.00;99.90
31074;DHT22;17730;53.552;9.940;2023-02-23T04:33:05;8.00;99.90
31074;DHT22;17730;53.552;9.940;2023-02-23T04:35:30;8.00;99.90
31074;DHT22;17730;53.552;9.940;2023-02-23T04:37:56;8.00;99.90
31074;DHT22;17730;53.552;9.940;2023-02-23T04:40:21;8.00;99.90
31074;DHT22;17730;53.552;9.940;2023-02-23T04:42:47;8.10;99.90
31074;DHT22;17730;53.552;9.940;2023-02-23T04:45:12;8.10;99.90
31074;DHT22;17730;53.552;9.940;2023-02-23T04:47:38;8.00;99.90
31074;DHT22;17730;53.552;9.940;2023-02-23T04:50:03;8.10;99.90
31074;DHT22;17730;53.552;9.940;2023-02-23T04:52:29;8.10;99.90
31074;DHT22;17730;53.552;9.940;2023-02-23T04:54:55;8.20;99.90
31074;DHT22;17730;53.552;9.940;2023-02-23T04:57:21;8.10;99.90
31074;DHT22;17730;53.552;9.940;2023-02-23T04:59:46;8.20;99.90
31074;DHT22;17730;53.552;9.940;2023-02-23T05:02:12;8.20;99.90
31074;DHT22;17730;53.552;9.940;2023-02-23T05:04:37;8.20;99.90
31074;DHT22;17730;53.552;9.940;2023-02-23T05:07:03;8.20;99.90
31074;DHT22;17730;53.552;9.940;2023-02-23T05:09:29;8.20;99.90
31074;DHT22;17730;53.552;9.940;2023-02-23T05:11:54;8.20;99.90
31074;DHT22;17730;53.552;9.940;2023-02-23T05:14:20;8.30;99.90
31074;DHT22;17730;53.552;9.940;2023-02-23T05:16:46;8.30;99.90
31074;DHT22;17730;53.552;9.940;2023-02-23T05:19:11;8.30;99.90
31074;DHT22;17730;53.552;9.940;2023-02-23T05:21:36;8.30;99.90
31074;DHT22;17730;53.552;9.940;2023-02-23T05:24:03;8.30;99.90
31074;DHT22;17730;53.552;9.940;2023-02-23T05:26:28;8.40;99.90
31074;DHT22;17730;53.552;9.940;2023-02-23T05:28:54;8.40;99.90
31074;DHT22;17730;53.552;9.940;2023-02-23T05:31:21;8.40;99.90
31074;DHT22;17730;53.552;9.940;2023-02-23T05:33:47;8.40;99.90
31074;DHT22;17730;53.552;9.940;2023-02-23T05:36:13;8.40;99.90
31074;DHT22;17730;53.552;9.940;2023-02-23T05:38:40;8.50;99.90
31074;DHT22;17730;53.552;9.940;2023-02-23T05:41:06;8.50;99.90
31074;DHT22;17730;53.552;9.940;2023-02-23T05:43:32;8.50;99.90
31074;DHT22;17730;53.552;9.940;2023-02-23T05:45:58;8.50;99.90
31074;DHT22;17730;53.552;9.940;2023-02-23T05:48:25;8.50;99.90
31074;DHT22;17730;53.552;9.940;2023-02-23T05:50:51;8.50;99.90
31074;DHT22;17730;53.552;9.940;2023-02-23T05:53:17;8.50;99.90
31074;DHT22;17730;53.552;9.940;2023-02-23T05:55:42;8.50;99.90
31074;DHT22;17730;53.552;9.940;2023-02-23T05:58:08;8.50;99.90
31074;DHT22;17730;53.552;9.940;2023-02-23T06:00:33;8.50;99.90
31074;DHT22;17730;53.552;9.940;2023-02-23T06:02:59;8.50;99.90
31074;DHT22;17730;53.552;9.940;2023-02-23T06:05:24;8.50;99.90
31074;DHT22;17730;53.552;9.940;2023-02-23T06:07:49;8.40;99.90
31074;DHT22;17730;53.552;9.940;2023-02-23T06:10:15;8.40;99.90
31074;DHT22;17730;53.552;9.940;2023-02-23T06:12:41;8.40;99.90
31074;DHT22;17730;53.552;9.940;2023-02-23T06:15:07;8.40;99.90
31074;DHT22;17730;53.552;9.940;2023-02-23T06:17:32;8.40;99.90
31074;DHT22;17730;53.552;9.940;2023-02-23T06:19:58;8.50;99.90
31074;DHT22;17730;53.552;9.940;2023-02-23T06:22:24;8.40;99.90
31074;DHT22;17730;53.552;9.940;2023-02-23T06:24:49;8.50;99.90
31074;DHT22;17730;53.552;9.940;2023-02-23T06:27:15;8.50;99.90
31074;DHT22;17730;53.552;9.940;2023-02-23T06:29:40;8.40;99.90
31074;DHT22;17730;53.552;9.940;2023-02-23T06:32:06;8.40;99.90
31074;DHT22;17730;53.552;9.940;2023-02-23T06:34:31;8.40;99.90
31074;DHT22;17730;53.552;9.940;2023-02-23T06:36:58;8.50;99.90
31074;DHT22;17730;53.552;9.940;2023-02-23T06:39:24;8.50;99.90
31074;DHT22;17730;53.552;9.940;2023-02-23T06:41:49;8.50;99.90
31074;DHT22;17730;53.552;9.940;2023-02-23T06:44:14;8.40;99.90
31074;DHT22;17730;53.552;9.940;2023-02-23T06:46:40;8.40;99.90
31074;DHT22;17730;53.552;9.940;2023-02-23T06:49:06;8.40;99.90
31074;DHT22;17730;53.552;9.940;2023-02-23T06:51:31;8.40;99.90
31074;DHT22;17730;53.552;9.940;2023-02-23T06:53:57;8.40;99.90
31074;DHT22;17730;53.552;9.940;2023-02-23T06:56:22;8.40;99.90
31074;DHT22;17730;53.552;9.940;2023-02-23T06:58:48;8.40;99.90
31074;DHT22;17730;53.552;9.940;2023-02-23T07:01:14;8.40;99.90
31074;DHT22;17730;53.552;9.940;2023-02-23T07:03:40;8.40;99.90
31074;DHT22;17730;53.552;9.940;2023-02-23T07:06:05;8.30;99.90
31074;DHT22;17730;53.552;9.940;2023-02-23T07:08:31;8.30;99.90
31074;DHT22;17730;53.552;9.940;2023-02-23T07:11:10;8.30;99.90
31074;DHT22;17730;53.552;9.940;2023-02-23T07:13:37;8.30;99.90
31074;DHT22;17730;53.552;9.940;2023-02-23T07:16:03;8.40;99.90
31074;DHT22;17730;53.552;9.940;2023-02-23T07:18:29;8.40;99.90
31074;DHT22;17730;53.552;9.940;2023-02-23T07:20:55;8.40;99.90
31074;DHT22;17730;53.552;9.940;2023-02-23T07:23:20;8.40;99.90
31074;DHT22;17730;53.552;9.940;2023-02-23T07:25:49;8.40;99.90
31074;DHT22;17730;53.552;9.940;2023-02-23T07:28:15;8.40;99.90
31074;DHT22;17730;53.552;9.940;2023-02-23T07:30:40;8.40;99.90
31074;DHT22;17730;53.552;9.940;2023-02-23T07:33:06;8.40;99.90
31074;DHT22;17730;53.552;9.940;2023-02-23T07:35:31;8.50;99.90
31074;DHT22;17730;53.552;9.940;2023-02-23T07:37:57;8.50;99.90
31074;DHT22;17730;53.552;9.940;2023-02-23T07:40:22;8.50;99.90
31074;DHT22;17730;53.552;9.940;2023-02-23T07:42:48;8.50;99.90
31074;DHT22;17730;53.552;9.940;2023-02-23T07:45:13;8.50;99.90
31074;DHT22;17730;53.552;9.940;2023-02-23T07:47:39;8.40;99.90
31074;DHT22;17730;53.552;9.940;2023-02-23T07:50:05;8.50;99.90
31074;DHT22;17730;53.552;9.940;2023-02-23T07:52:37;8.50;99.90
31074;DHT22;17730;53.552;9.940;2023-02-23T07:55:03;8.60;99.90
31074;DHT22;17730;53.552;9.940;2023-02-23T07:57:29;8.60;99.90
31074;DHT22;17730;53.552;9.940;2023-02-23T07:59:54;8.60;99.90
31074;DHT22;17730;53.552;9.940;2023-02-23T08:02:20;8.60;99.90
31074;DHT22;17730;53.552;9.940;2023-02-23T08:04:45;8.60;99.90
31074;DHT22;17730;53.552;9.940;2023-02-23T08:07:12;8.60;99.90
31074;DHT22;17730;53.552;9.940;2023-02-23T08:09:38;8.50;99.90
31074;DHT22;17730;53.552;9.940;2023-02-23T08:12:03;8.60;99.90
31074;DHT22;17730;53.552;9.940;2023-02-23T08:14:29;8.60;99.90
31074;DHT22;17730;53.552;9.940;2023-02-23T08:16:54;8.50;99.90
31074;DHT22;17730;53.552;9.940;2023-02-23T08:19:20;8.50;99.90
31074;DHT22;17730;53.552;9.940;2023-02-23T08:21:49;8.50;99.90
31074;DHT22;17730;53.552;9.940;2023-02-23T08:24:15;8.50;99.90
31074;DHT22;17730;53.552;9.940;2023-02-23T08:26:40;8.50;99.90
31074;DHT22;17730;53.552;9.940;2023-02-23T08:29:06;8.50;99.90
31074;DHT22;17730;53.552;9.940;2023-02-23T08:31:31;8.60;99.90
31074;DHT22;17730;53.552;9.940;2023-02-23T08:33:57;8.60;99.90
31074;DHT22;17730;53.552;9.940;2023-02-23T08:36:23;8.60;99.90
31074;DHT22;17730;53.552;9.940;2023-02-23T08:38:48;8.60;99.90
31074;DHT22;17730;53.552;9.940;2023-02-23T08:41:14;8.60;99.90
31074;DHT22;17730;53.552;9.940;2023-02-23T08:43:40;8.50;99.90
31074;DHT22;17730;53.552;9.940;2023-02-23T08:46:05;8.50;99.90
31074;DHT22;17730;53.552;9.940;2023-02-23T08:48:31;8.60;99.90
31074;DHT22;17730;53.552;9.940;2023-02-23T08:50:57;8.60;99.90
31074;DHT22;17730;53.552;9.940;2023-02-23T08:53:23;8.60;99.90
31074;DHT22;17730;53.552;9.940;2023-02-23T08:55:56;8.60;99.90
31074;DHT22;17730;53.552;9.940;2023-02-23T08:58:22;8.50;99.90
31074;DHT22;17730;53.552;9.940;2023-02-23T09:00:47;8.50;99.90
31074;DHT22;17730;53.552;9.940;2023-02-23T09:03:13;8.50;99.90
31074;DHT22;17730;53.552;9.940;2023-02-23T09:05:38;8.50;99.90
31074;DHT22;17730;53.552;9.940;2023-02-23T09:08:04;8.50;99.90
31074;DHT22;17730;53.552;9.940;2023-02-23T09:10:31;8.40;99.90
31074;DHT22;17730;53.552;9.940;2023-02-23T09:12:57;8.70;99.90
31074;DHT22;17730;53.552;9.940;2023-02-23T09:15:23;8.90;99.90
31074;DHT22;17730;53.552;9.940;2023-02-23T09:17:48;9.00;99.90
31074;DHT22;17730;53.552;9.940;2023-02-23T09:20:14;9.10;99.90
31074;DHT22;17730;53.552;9.940;2023-02-23T09:22:41;9.20;99.90
31074;DHT22;17730;53.552;9.940;2023-02-23T09:25:09;9.20;99.90
31074;DHT22;17730;53.552;9.940;2023-02-23T09:27:37;9.30;99.90
31074;DHT22;17730;53.552;9.940;2023-02-23T09:30:02;9.10;99.90
31074;DHT22;17730;53.552;9.940;2023-02-23T09:32:28;9.00;99.90
31074;DHT22;17730;53.552;9.940;2023-02-23T09:34:54;8.80;99.90
31074;DHT22;17730;53.552;9.940;2023-02-23T09:37:19;8.70;99.90
31074;DHT22;17730;53.552;9.940;2023-02-23T09:39:45;8.60;99.90
31074;DHT22;17730;53.552;9.940;2023-02-23T09:47:25;8.30;99.90
31074;DHT22;17730;53.552;9.940;2023-02-23T09:49:51;8.20;99.90
31074;DHT22;17730;53.552;9.940;2023-02-23T09:52:20;8.20;99.90
31074;DHT22;17730;53.552;9.940;2023-02-23T09:54:46;8.10;99.90
31074;DHT22;17730;53.552;9.940;2023-02-23T09:57:16;8.10;99.90
31074;DHT22;17730;53.552;9.940;2023-02-23T09:59:43;8.20;99.90
31074;DHT22;17730;53.552;9.940;2023-02-23T10:04:45;8.30;99.90
31074;DHT22;17730;53.552;9.940;2023-02-23T10:07:15;8.40;99.90
31074;DHT22;17730;53.552;9.940;2023-02-23T10:12:32;8.50;99.90
31074;DHT22;17730;53.552;9.940;2023-02-23T10:22:52;8.60;99.90
31074;DHT22;17730;53.552;9.940;2023-02-23T10:25:20;8.70;99.90
31074;DHT22;17730;53.552;9.940;2023-02-23T10:27:48;8.90;99.90
31074;DHT22;17730;53.552;9.940;2023-02-23T10:32:46;8.90;99.90
31074;DHT22;17730;53.552;9.940;2023-02-23T10:35:17;8.90;99.90
31074;DHT22;17730;53.552;9.940;2023-02-23T10:37:45;8.80;99.90
31074;DHT22;17730;53.552;9.940;2023-02-23T10:40:16;8.80;99.90
31074;DHT22;17730;53.552;9.940;2023-02-23T10:42:42;8.60;99.90
31074;DHT22;17730;53.552;9.940;2023-02-23T10:45:14;8.50;99.90
31074;DHT22;17730;53.552;9.940;2023-02-23T10:47:43;8.50;99.90
31074;DHT22;17730;53.552;9.940;2023-02-23T10:50:10;8.40;99.90
31074;DHT22;17730;53.552;9.940;2023-02-23T10:52:46;8.40;99.90
31074;DHT22;17730;53.552;9.940;2023-02-23T10:55:45;8.30;99.90
31074;DHT22;17730;53.552;9.940;2023-02-23T10:58:08;8.30;99.90
31074;DHT22;17730;53.552;9.940;2023-02-23T11:00:37;8.20;99.90
31074;DHT22;17730;53.552;9.940;2023-02-23T11:03:14;8.30;99.90
31074;DHT22;17730;53.552;9.940;2023-02-23T11:05:44;8.20;99.90
31074;DHT22;17730;53.552;9.940;2023-02-23T11:10:35;8.10;99.90
31074;DHT22;17730;53.552;9.940;2023-02-23T11:13:01;8.00;99.90
31074;DHT22;17730;53.552;9.940;2023-02-23T11:15:28;8.10;99.90
31074;DHT22;17730;53.552;9.940;2023-02-23T11:17:58;8.10;99.90
31074;DHT22;17730;53.552;9.940;2023-02-23T11:22:55;8.30;99.90
31074;DHT22;17730;53.552;9.940;2023-02-23T11:25:28;8.50;99.90
31074;DHT22;17730;53.552;9.940;2023-02-23T11:27:54;8.80;99.90
31074;DHT22;17730;53.552;9.940;2023-02-23T11:30:21;9.10;99.90
31074;DHT22;17730;53.552;9.940;2023-02-23T11:32:50;9.10;99.90
31074;DHT22;17730;53.552;9.940;2023-02-23T11:37:44;9.30;99.90
31074;DHT22;17730;53.552;9.940;2023-02-23T11:42:54;9.40;99.90
31074;DHT22;17730;53.552;9.940;2023-02-23T11:45:20;9.40;99.90
31074;DHT22;17730;53.552;9.940;2023-02-23T11:47:47;9.40;99.90
31074;DHT22;17730;53.552;9.940;2023-02-23T11:50:20;9.30;99.90
31074;DHT22;17730;53.552;9.940;2023-02-23T11:52:49;9.40;99.90
31074;DHT22;17730;53.552;9.940;2023-02-23T11:55:16;9.40;99.90
31074;DHT22;17730;53.552;9.940;2023-02-23T11:57:43;9.40;99.90
31074;DHT22;17730;53.552;9.940;2023-02-23T12:00:10;9.40;99.90
31074;DHT22;17730;53.552;9.940;2023-02-23T12:02:43;9.40;99.90
31074;DHT22;17730;53.552;9.940;2023-02-23T12:05:19;9.30;99.90
31074;DHT22;17730;53.552;9.940;2023-02-23T12:10:36;9.40;99.90
31074;DHT22;17730;53.552;9.940;2023-02-23T12:17:57;9.50;99.90
31074;DHT22;17730;53.552;9.940;2023-02-23T12:20:25;9.90;99.90
31074;DHT22;17730;53.552;9.940;2023-02-23T12:22:57;10.00;99.90
31074;DHT22;17730;53.552;9.940;2023-02-23T12:25:38;9.70;99.90
31074;DHT22;17730;53.552;9.940;2023-02-23T12:30:59;9.40;99.90
31074;DHT22;17730;53.552;9.940;2023-02-23T12:33:45;9.30;99.90
31074;DHT22;17730;53.552;9.940;2023-02-23T12:36:29;9.30;99.90
31074;DHT22;17730;53.552;9.940;2023-02-23T12:41:57;9.20;99.90
31074;DHT22;17730;53.552;9.940;2023-02-23T12:46:50;9.00;99.90
31074;DHT22;17730;53.552;9.940;2023-02-23T12:49:23;9.00;99.90
31074;DHT22;17730;53.552;9.940;2023-02-23T12:51:53;9.00;99.90
31074;DHT22;17730;53.552;9.940;2023-02-23T12:54:19;9.00;99.90
31074;DHT22;17730;53.552;9.940;2023-02-23T13:02:02;9.50;99.90
31074;DHT22;17730;53.552;9.940;2023-02-23T13:07:08;9.30;99.90
31074;DHT22;17730;53.552;9.940;2023-02-23T13:09:58;9.30;99.90
31074;DHT22;17730;53.552;9.940;2023-02-23T13:25:19;9.00;99.90
31074;DHT22;17730;53.552;9.940;2023-02-23T13:27:47;9.00;99.90
31074;DHT22;17730;53.552;9.940;2023-02-23T13:30:16;9.10;99.90
31074;DHT22;17730;53.552;9.940;2023-02-23T13:32:42;9.10;99.90
31074;DHT22;17730;53.552;9.940;2023-02-23T13:35:14;9.00;99.90
31074;DHT22;17730;53.552;9.940;2023-02-23T13:37:54;9.10;99.90
31074;DHT22;17730;53.552;9.940;2023-02-23T13:43:05;9.10;99.90
31074;DHT22;17730;53.552;9.940;2023-02-23T13:51:27;9.10;99.90
31074;DHT22;17730;53.552;9.940;2023-02-23T13:56:27;9.80;99.90
31074;DHT22;17730;53.552;9.940;2023-02-23T13:59:01;9.80;99.90
31074;DHT22;17730;53.552;9.940;2023-02-23T14:01:28;9.70;99.90
31074;DHT22;17730;53.552;9.940;2023-02-23T14:03:56;9.40;99.90
31074;DHT22;17730;53.552;9.940;2023-02-23T14:06:23;9.40;99.90
31074;DHT22;17730;53.552;9.940;2023-02-23T14:08:50;9.40;99.90
31074;DHT22;17730;53.552;9.940;2023-02-23T14:11:26;9.30;99.90
31074;DHT22;17730;53.552;9.940;2023-02-23T14:13:57;9.20;99.90
31074;DHT22;17730;53.552;9.940;2023-02-23T14:16:22;9.20;99.90
31074;DHT22;17730;53.552;9.940;2023-02-23T14:21:55;9.10;99.90
31074;DHT22;17730;53.552;9.940;2023-02-23T14:24:22;9.00;99.90
31074;DHT22;17730;53.552;9.940;2023-02-23T14:29:41;9.00;99.90
31074;DHT22;17730;53.552;9.940;2023-02-23T14:34:57;9.00;99.90
31074;DHT22;17730;53.552;9.940;2023-02-23T14:37:23;8.90;99.90
31074;DHT22;17730;53.552;9.940;2023-02-23T14:39:49;8.90;99.90
31074;DHT22;17730;53.552;9.940;2023-02-23T14:42:23;9.10;99.90
31074;DHT22;17730;53.552;9.940;2023-02-23T14:44:49;9.50;99.90
31074;DHT22;17730;53.552;9.940;2023-02-23T14:47:20;9.70;99.90
31074;DHT22;17730;53.552;9.940;2023-02-23T14:52:34;9.40;99.90
31074;DHT22;17730;53.552;9.940;2023-02-23T14:57:42;9.40;99.90
31074;DHT22;17730;53.552;9.940;2023-02-23T15:00:15;9.30;99.90
31074;DHT22;17730;53.552;9.940;2023-02-23T15:03:18;9.30;99.90
31074;DHT22;17730;53.552;9.940;2023-02-23T15:05:42;9.40;99.90
31074;DHT22;17730;53.552;9.940;2023-02-23T15:08:08;9.30;99.90
31074;DHT22;17730;53.552;9.940;2023-02-23T15:10:40;9.20;99.90
31074;DHT22;17730;53.552;9.940;2023-02-23T15:13:12;9.20;99.90
31074;DHT22;17730;53.552;9.940;2023-02-23T15:15:43;9.10;99.90
31074;DHT22;17730;53.552;9.940;2023-02-23T15:21:17;9.00;99.90
31074;DHT22;17730;53.552;9.940;2023-02-23T15:23:44;9.00;99.90
31074;DHT22;17730;53.552;9.940;2023-02-23T15:28:48;9.10;99.90
31074;DHT22;17730;53.552;9.940;2023-02-23T15:31:13;9.00;99.90
31074;DHT22;17730;53.552;9.940;2023-02-23T15:33:39;8.90;99.90
31074;DHT22;17730;53.552;9.940;2023-02-23T15:39:04;8.80;99.90
31074;DHT22;17730;53.552;9.940;2023-02-23T15:41:34;8.70;99.90
31074;DHT22;17730;53.552;9.940;2023-02-23T15:44:22;8.60;99.90
31074;DHT22;17730;53.552;9.940;2023-02-23T15:46:50;8.60;99.90
31074;DHT22;17730;53.552;9.940;2023-02-23T15:49:16;8.50;99.90
31074;DHT22;17730;53.552;9.940;2023-02-23T15:51:45;8.50;99.90
31074;DHT22;17730;53.552;9.940;2023-02-23T15:56:49;8.40;99.90
31074;DHT22;17730;53.552;9.940;2023-02-23T15:59:25;8.40;99.90
31074;DHT22;17730;53.552;9.940;2023-02-23T16:01:53;8.40;99.90
31074;DHT22;17730;53.552;9.940;2023-02-23T16:04:19;8.20;99.90
31074;DHT22;17730;53.552;9.940;2023-02-23T16:07:05;8.20;99.90
31074;DHT22;17730;53.552;9.940;2023-02-23T16:09:31;8.10;99.90
31074;DHT22;17730;53.552;9.940;2023-02-23T16:12:02;8.20;99.90
31074;DHT22;17730;53.552;9.940;2023-02-23T16:14:33;8.10;99.90
31074;DHT22;17730;53.552;9.940;2023-02-23T16:17:17;8.00;99.90
31074;DHT22;17730;53.552;9.940;2023-02-23T16:19:44;7.90;99.90
31074;DHT22;17730;53.552;9.940;2023-02-23T16:22:20;7.80;99.90
31074;DHT22;17730;53.552;9.940;2023-02-23T16:25:06;7.80;99.90
31074;DHT22;17730;53.552;9.940;2023-02-23T16:27:33;7.80;99.90
31074;DHT22;17730;53.552;9.940;2023-02-23T16:30:10;7.80;99.90
31074;DHT22;17730;53.552;9.940;2023-02-23T16:32:40;7.70;99.90
31074;DHT22;17730;53.552;9.940;2023-02-23T16:40:41;7.70;99.90
31074;DHT22;17730;53.552;9.940;2023-02-23T16:43:08;7.60;99.90
31074;DHT22;17730;53.552;9.940;2023-02-23T16:45:33;7.50;99.90
31074;DHT22;17730;53.552;9.940;2023-02-23T16:47:59;7.50;99.90
31074;DHT22;17730;53.552;9.940;2023-02-23T16:50:27;7.40;99.90
31074;DHT22;17730;53.552;9.940;2023-02-23T16:52:53;7.40;99.90
31074;DHT22;17730;53.552;9.940;2023-02-23T16:55:23;7.40;99.90
31074;DHT22;17730;53.552;9.940;2023-02-23T16:57:53;7.30;99.90
31074;DHT22;17730;53.552;9.940;2023-02-23T17:00:29;7.30;99.90
31074;DHT22;17730;53.552;9.940;2023-02-23T17:02:55;7.30;99.90
31074;DHT22;17730;53.552;9.940;2023-02-23T17:05:21;7.10;99.90
31074;DHT22;17730;53.552;9.940;2023-02-23T17:07:48;7.10;99.90
31074;DHT22;17730;53.552;9.940;2023-02-23T17:10:18;7.00;99.90
31074;DHT22;17730;53.552;9.940;2023-02-23T17:12:57;7.00;99.90
31074;DHT22;17730;53.552;9.940;2023-02-23T17:15:23;7.00;99.90
31074;DHT22;17730;53.552;9.940;2023-02-23T17:17:50;7.00;99.90
31074;DHT22;17730;53.552;9.940;2023-02-23T17:20:17;7.00;99.90
31074;DHT22;17730;53.552;9.940;2023-02-23T17:22:46;6.90;99.90
31074;DHT22;17730;53.552;9.940;2023-02-23T17:25:12;6.90;99.90
31074;DHT22;17730;53.552;9.940;2023-02-23T17:27:38;6.90;99.90
31074;DHT22;17730;53.552;9.940;2023-02-23T17:30:04;6.90;99.90
31074;DHT22;17730;53.552;9.940;2023-02-23T17:32:30;6.90;99.90
31074;DHT22;17730;53.552;9.940;2023-02-23T17:34:56;6.90;99.90
31074;DHT22;17730;53.552;9.940;2023-02-23T17:37:21;6.90;99.90
31074;DHT22;17730;53.552;9.940;2023-02-23T17:39:47;6.90;99.90
31074;DHT22;17730;53.552;9.940;2023-02-23T17:42:14;6.90;99.90
31074;DHT22;17730;53.552;9.940;2023-02-23T17:44:39;6.90;99.90
31074;DHT22;17730;53.552;9.940;2023-02-23T17:47:05;7.00;99.90
31074;DHT22;17730;53.552;9.940;2023-02-23T17:49:31;7.00;99.90
31074;DHT22;17730;53.552;9.940;2023-02-23T17:51:56;6.90;99.90
31074;DHT22;17730;53.552;9.940;2023-02-23T17:54:22;6.90;99.90
31074;DHT22;17730;53.552;9.940;2023-02-23T17:56:47;6.80;99.90
31074;DHT22;17730;53.552;9.940;2023-02-23T17:59:13;6.70;99.90
31074;DHT22;17730;53.552;9.940;2023-02-23T18:01:38;6.70;99.90
31074;DHT22;17730;53.552;9.940;2023-02-23T18:04:04;6.60;99.90
31074;DHT22;17730;53.552;9.940;2023-02-23T18:06:30;6.60;99.90
31074;DHT22;17730;53.552;9.940;2023-02-23T18:08:55;6.60;99.90
31074;DHT22;17730;53.552;9.940;2023-02-23T18:11:21;6.50;99.90
31074;DHT22;17730;53.552;9.940;2023-02-23T18:13:46;6.50;99.90